CFG1WM LEPA-EDLW
Flight info
| Callsign | CFG1WM |
|---|---|
| Flight time | N/A |
| Altitude | 34000 |
| Route | MEROS N853 LUMAS DCT MAXIR DCT LUSOL DCT BODRU DCT OKTET DCT IRMAR DCT KINES DCT VANAS DCT MOBLO DCT UBIMA DCT GILIR DCT PENDU DCT IXILU DCT EPL/N0446F320 DCT ROUSY DCT DIK/N0448F350 T856 DEPOK/N0399F230 T856 AFNAF M170 ADEMI ADEMI2A |
| Aircraft | A321/M-SDE3FGHIJ1LORVWXYZ/LB1D1 |
Departure
| Time | 2026-05-05 16:38 |
|---|---|
| Airport | Palma de Mallorca Airport (LEPA) |
Arrival
| Time | N/A |
|---|---|
| Airport | Dortmund Airport (EDLW) |
| Time | Latitude | Longitude | Altitude | Speed | Heading |
|---|---|---|---|---|---|
| 2026-05-05 16:11 | 39.54851 | 2.73844 | 39 ft | 0 kts | 268° |
| 2026-05-05 16:27 | 39.54852 | 2.73862 | 38 ft | 4 kts | 266° |
| 2026-05-05 16:28 | 39.54856 | 2.73896 | 38 ft | 4 kts | 251° |
| 2026-05-05 16:28 | 39.54865 | 2.73921 | 38 ft | 2 kts | 231° |
| 2026-05-05 16:28 | 39.54878 | 2.73949 | 37 ft | 4 kts | 264° |
| 2026-05-05 16:28 | 39.54872 | 2.73978 | 38 ft | 4 kts | 317° |
| 2026-05-05 16:29 | 39.54851 | 2.73996 | 38 ft | 4 kts | 329° |
| 2026-05-05 16:29 | 39.54845 | 2.74001 | 38 ft | 0 kts | 329° |
| 2026-05-05 16:31 | 39.54846 | 2.74000 | 38 ft | 1 kts | 329° |
| 2026-05-05 16:31 | 39.54873 | 2.73980 | 38 ft | 8 kts | 329° |
| 2026-05-05 16:31 | 39.54929 | 2.73973 | 37 ft | 8 kts | 34° |
| 2026-05-05 16:32 | 39.54969 | 2.74008 | 38 ft | 9 kts | 358° |
| 2026-05-05 16:32 | 39.55047 | 2.73953 | 37 ft | 14 kts | 329° |
| 2026-05-05 16:32 | 39.55127 | 2.73890 | 36 ft | 13 kts | 328° |
| 2026-05-05 16:32 | 39.55199 | 2.73832 | 38 ft | 11 kts | 329° |
| 2026-05-05 16:33 | 39.55263 | 2.73782 | 38 ft | 10 kts | 329° |
| 2026-05-05 16:33 | 39.55320 | 2.73739 | 37 ft | 9 kts | 329° |
| 2026-05-05 16:33 | 39.55374 | 2.73697 | 38 ft | 12 kts | 329° |
| 2026-05-05 16:33 | 39.55467 | 2.73625 | 38 ft | 20 kts | 329° |
| 2026-05-05 16:34 | 39.55600 | 2.73521 | 35 ft | 15 kts | 329° |
| 2026-05-05 16:34 | 39.55678 | 2.73549 | 38 ft | 12 kts | 57° |
| 2026-05-05 16:34 | 39.55720 | 2.73640 | 38 ft | 12 kts | 58° |
| 2026-05-05 16:34 | 39.55763 | 2.73731 | 37 ft | 12 kts | 58° |
| 2026-05-05 16:35 | 39.55807 | 2.73822 | 38 ft | 12 kts | 58° |
| 2026-05-05 16:35 | 39.55847 | 2.73907 | 37 ft | 10 kts | 59° |
| 2026-05-05 16:35 | 39.55889 | 2.73998 | 37 ft | 15 kts | 59° |
| 2026-05-05 16:35 | 39.55950 | 2.74125 | 36 ft | 17 kts | 58° |
| 2026-05-05 16:36 | 39.56007 | 2.74247 | 37 ft | 15 kts | 58° |
| 2026-05-05 16:36 | 39.56058 | 2.74355 | 38 ft | 13 kts | 58° |
| 2026-05-05 16:36 | 39.56111 | 2.74440 | 37 ft | 11 kts | 33° |
| 2026-05-05 16:36 | 39.56176 | 2.74436 | 38 ft | 9 kts | 339° |
| 2026-05-05 16:37 | 39.56228 | 2.74395 | 38 ft | 9 kts | 320° |
| 2026-05-05 16:37 | 39.56240 | 2.74296 | 38 ft | 14 kts | 243° |
| 2026-05-05 16:37 | 39.56182 | 2.74173 | 37 ft | 23 kts | 238° |
| 2026-05-05 16:37 | 39.55979 | 2.73745 | 38 ft | 87 kts | 238° |
| 2026-05-05 16:38 | 39.55570 | 2.72875 | 39 ft | 137 kts | 239° |
| 2026-05-05 16:38 | 39.55021 | 2.71708 | 265 ft | 155 kts | 238° |
| 2026-05-05 16:38 | 39.54469 | 2.70525 | 884 ft | 154 kts | 239° |
| 2026-05-05 16:38 | 39.53900 | 2.69339 | 1460 ft | 157 kts | 236° |
| 2026-05-05 16:39 | 39.53292 | 2.68113 | 1834 ft | 167 kts | 238° |
| 2026-05-05 16:39 | 39.52643 | 2.66766 | 2016 ft | 188 kts | 238° |
| 2026-05-05 16:39 | 39.51928 | 2.65247 | 2228 ft | 205 kts | 239° |
| 2026-05-05 16:39 | 39.51175 | 2.63651 | 2683 ft | 212 kts | 239° |
| 2026-05-05 16:40 | 39.50402 | 2.62019 | 3283 ft | 213 kts | 239° |
| 2026-05-05 16:40 | 39.49418 | 2.60512 | 3683 ft | 231 kts | 217° |
| 2026-05-05 16:40 | 39.47852 | 2.59775 | 3928 ft | 257 kts | 182° |
| 2026-05-05 16:40 | 39.46102 | 2.60431 | 4449 ft | 274 kts | 147° |
| 2026-05-05 16:41 | 39.44878 | 2.62344 | 5078 ft | 285 kts | 112° |
| 2026-05-05 16:41 | 39.44414 | 2.64861 | 5752 ft | 290 kts | 97° |
| 2026-05-05 16:41 | 39.44326 | 2.67475 | 6451 ft | 293 kts | 91° |
| 2026-05-05 16:41 | 39.44372 | 2.70119 | 7138 ft | 296 kts | 90° |
| 2026-05-05 16:42 | 39.44428 | 2.72794 | 7812 ft | 299 kts | 91° |
| 2026-05-05 16:42 | 39.44446 | 2.75504 | 8488 ft | 302 kts | 92° |
| 2026-05-05 16:42 | 39.44419 | 2.78236 | 9159 ft | 305 kts | 94° |
| 2026-05-05 16:42 | 39.44356 | 2.80998 | 9833 ft | 309 kts | 95° |
| 2026-05-05 16:43 | 39.44268 | 2.83811 | 10192 ft | 322 kts | 95° |
| 2026-05-05 16:43 | 39.44158 | 2.86802 | 10325 ft | 343 kts | 95° |
| 2026-05-05 16:43 | 39.44036 | 2.89957 | 10448 ft | 362 kts | 95° |
| 2026-05-05 16:43 | 39.44099 | 2.93268 | 10590 ft | 382 kts | 81° |
| 2026-05-05 16:44 | 39.45009 | 2.96534 | 11019 ft | 391 kts | 59° |
| 2026-05-05 16:44 | 39.46717 | 2.99280 | 11513 ft | 396 kts | 45° |
| 2026-05-05 16:44 | 39.48652 | 3.01817 | 12070 ft | 400 kts | 44° |
| 2026-05-05 16:44 | 39.50623 | 3.04370 | 12639 ft | 404 kts | 44° |
| 2026-05-05 16:45 | 39.52623 | 3.06956 | 13195 ft | 409 kts | 44° |
| 2026-05-05 16:45 | 39.54645 | 3.09578 | 13728 ft | 414 kts | 44° |
| 2026-05-05 16:45 | 39.56685 | 3.12240 | 14235 ft | 418 kts | 44° |
| 2026-05-05 16:45 | 39.58738 | 3.14923 | 14725 ft | 421 kts | 44° |
| 2026-05-05 16:46 | 39.60810 | 3.17634 | 15236 ft | 425 kts | 44° |
| 2026-05-05 16:46 | 39.62890 | 3.20357 | 15712 ft | 428 kts | 44° |
| 2026-05-05 16:46 | 39.64992 | 3.23107 | 16187 ft | 431 kts | 44° |
| 2026-05-05 16:46 | 39.67112 | 3.25881 | 16662 ft | 435 kts | 43° |
| 2026-05-05 16:47 | 39.69248 | 3.28680 | 17148 ft | 438 kts | 44° |
| 2026-05-05 16:47 | 39.71403 | 3.31510 | 17606 ft | 441 kts | 43° |
| 2026-05-05 16:47 | 39.73566 | 3.34356 | 18086 ft | 444 kts | 43° |
| 2026-05-05 16:47 | 39.75744 | 3.37224 | 18492 ft | 448 kts | 43° |
| 2026-05-05 16:48 | 39.77941 | 3.40117 | 18839 ft | 452 kts | 43° |
| 2026-05-05 16:48 | 39.80161 | 3.43040 | 19208 ft | 456 kts | 43° |
| 2026-05-05 16:48 | 39.82390 | 3.45986 | 19558 ft | 459 kts | 43° |
| 2026-05-05 16:48 | 39.84637 | 3.48962 | 19921 ft | 463 kts | 43° |
| 2026-05-05 16:49 | 39.86903 | 3.51962 | 20278 ft | 466 kts | 43° |
| 2026-05-05 16:49 | 39.89187 | 3.54989 | 20639 ft | 470 kts | 43° |
| 2026-05-05 16:49 | 39.91480 | 3.58027 | 20997 ft | 473 kts | 43° |
| 2026-05-05 16:49 | 39.93796 | 3.61099 | 21332 ft | 476 kts | 43° |
| 2026-05-05 16:50 | 39.96120 | 3.64185 | 21681 ft | 479 kts | 43° |
| 2026-05-05 16:50 | 39.98468 | 3.67299 | 22050 ft | 483 kts | 43° |
| 2026-05-05 16:50 | 40.00831 | 3.70435 | 22397 ft | 487 kts | 43° |
| 2026-05-05 16:50 | 40.03208 | 3.73596 | 22740 ft | 490 kts | 43° |
| 2026-05-05 16:51 | 40.05606 | 3.76791 | 23080 ft | 493 kts | 43° |
| 2026-05-05 16:51 | 40.08011 | 3.79997 | 23410 ft | 496 kts | 43° |
| 2026-05-05 16:51 | 40.10434 | 3.83234 | 23718 ft | 498 kts | 44° |
| 2026-05-05 16:51 | 40.12859 | 3.86481 | 24018 ft | 500 kts | 44° |
| 2026-05-05 16:52 | 40.15294 | 3.89749 | 24307 ft | 503 kts | 44° |
| 2026-05-05 16:52 | 40.17738 | 3.93033 | 24597 ft | 505 kts | 44° |
| 2026-05-05 16:52 | 40.20188 | 3.96325 | 24901 ft | 508 kts | 44° |
| 2026-05-05 16:52 | 40.22658 | 3.99647 | 25178 ft | 510 kts | 44° |
| 2026-05-05 16:53 | 40.25137 | 4.02983 | 25446 ft | 513 kts | 44° |
| 2026-05-05 16:53 | 40.27630 | 4.06333 | 25729 ft | 515 kts | 44° |
| 2026-05-05 16:53 | 40.30136 | 4.09695 | 25988 ft | 518 kts | 44° |
| 2026-05-05 16:53 | 40.32657 | 4.13091 | 26258 ft | 521 kts | 44° |
| 2026-05-05 16:54 | 40.35207 | 4.16535 | 26534 ft | 522 kts | 44° |
| 2026-05-05 16:54 | 40.37702 | 4.19927 | 26747 ft | 524 kts | 44° |
| 2026-05-05 16:54 | 40.40241 | 4.23384 | 27068 ft | 524 kts | 44° |
| 2026-05-05 16:54 | 40.42770 | 4.26831 | 27257 ft | 526 kts | 45° |
| 2026-05-05 16:55 | 40.45373 | 4.30239 | 27426 ft | 528 kts | 39° |
| 2026-05-05 16:55 | 40.48251 | 4.33202 | 27646 ft | 528 kts | 31° |
| 2026-05-05 16:55 | 40.51424 | 4.35621 | 27892 ft | 525 kts | 21° |
| 2026-05-05 16:55 | 40.54786 | 4.37438 | 28104 ft | 522 kts | 13° |
| 2026-05-05 16:56 | 40.58277 | 4.38631 | 28408 ft | 515 kts | 4° |
| 2026-05-05 16:56 | 40.61805 | 4.39466 | 28722 ft | 515 kts | 4° |
| 2026-05-05 16:56 | 40.65337 | 4.40308 | 29040 ft | 516 kts | 4° |
| 2026-05-05 16:56 | 40.68862 | 4.41162 | 29375 ft | 515 kts | 5° |
| 2026-05-05 16:57 | 40.72399 | 4.42020 | 29699 ft | 516 kts | 4° |
| 2026-05-05 16:57 | 40.75925 | 4.42865 | 29989 ft | 516 kts | 4° |
| 2026-05-05 16:57 | 40.78301 | 4.43432 | 30159 ft | 515 kts | 4° |
| 2026-05-05 16:57 | 40.81821 | 4.44271 | 30431 ft | 515 kts | 4° |
| 2026-05-05 16:58 | 40.85340 | 4.45112 | 30699 ft | 515 kts | 4° |
| 2026-05-05 16:58 | 40.88872 | 4.45964 | 30920 ft | 515 kts | 4° |
| 2026-05-05 16:58 | 40.92376 | 4.46814 | 31190 ft | 515 kts | 4° |
| 2026-05-05 16:58 | 40.95906 | 4.47672 | 31459 ft | 515 kts | 4° |
| 2026-05-05 16:59 | 40.99432 | 4.48535 | 31751 ft | 515 kts | 4° |
| 2026-05-05 16:59 | 41.02945 | 4.49399 | 32038 ft | 514 kts | 4° |
| 2026-05-05 16:59 | 41.06472 | 4.50266 | 32353 ft | 514 kts | 4° |
| 2026-05-05 16:59 | 41.09985 | 4.51117 | 32590 ft | 515 kts | 4° |
| 2026-05-05 17:00 | 41.13562 | 4.51982 | 32897 ft | 515 kts | 4° |
| 2026-05-05 17:00 | 41.17082 | 4.52835 | 33193 ft | 514 kts | 3° |
| 2026-05-05 17:00 | 41.20596 | 4.53684 | 33492 ft | 513 kts | 3° |
| 2026-05-05 17:00 | 41.24111 | 4.54538 | 33770 ft | 513 kts | 3° |
| 2026-05-05 17:01 | 41.27626 | 4.55395 | 33899 ft | 512 kts | 4° |
| 2026-05-05 17:01 | 41.31119 | 4.56247 | 33888 ft | 511 kts | 4° |
| 2026-05-05 17:01 | 41.38112 | 4.57962 | 33880 ft | 510 kts | 4° |
| 2026-05-05 17:02 | 41.45085 | 4.59684 | 33888 ft | 510 kts | 4° |
| 2026-05-05 17:02 | 41.52049 | 4.61404 | 33884 ft | 511 kts | 4° |
| 2026-05-05 17:03 | 41.59093 | 4.63139 | 33890 ft | 511 kts | 4° |
| 2026-05-05 17:03 | 41.66088 | 4.64865 | 33887 ft | 511 kts | 4° |
| 2026-05-05 17:04 | 41.73036 | 4.67110 | 33902 ft | 520 kts | 16° |
| 2026-05-05 17:04 | 41.79499 | 4.71596 | 33891 ft | 527 kts | 28° |
| 2026-05-05 17:05 | 41.85792 | 4.76690 | 33890 ft | 528 kts | 28° |
| 2026-05-05 17:05 | 41.92050 | 4.81725 | 33909 ft | 529 kts | 28° |
| 2026-05-05 17:06 | 41.98375 | 4.86808 | 33898 ft | 529 kts | 28° |
| 2026-05-05 17:06 | 42.04671 | 4.91901 | 33885 ft | 529 kts | 28° |
| 2026-05-05 17:07 | 42.11019 | 4.97063 | 33879 ft | 530 kts | 28° |
| 2026-05-05 17:07 | 42.17334 | 5.02197 | 33877 ft | 530 kts | 28° |
| 2026-05-05 17:08 | 42.23652 | 5.07329 | 33884 ft | 531 kts | 28° |
| 2026-05-05 17:08 | 42.29974 | 5.12504 | 33914 ft | 531 kts | 28° |
| 2026-05-05 17:09 | 42.36288 | 5.17685 | 33897 ft | 532 kts | 28° |
| 2026-05-05 17:09 | 42.42624 | 5.22886 | 33890 ft | 533 kts | 28° |
| 2026-05-05 17:10 | 42.48960 | 5.28096 | 33890 ft | 533 kts | 28° |
| 2026-05-05 17:10 | 42.55293 | 5.33322 | 33861 ft | 534 kts | 28° |
| 2026-05-05 17:11 | 42.61639 | 5.38572 | 33877 ft | 534 kts | 28° |
| 2026-05-05 17:11 | 42.67974 | 5.43827 | 33887 ft | 534 kts | 28° |
| 2026-05-05 17:12 | 42.74311 | 5.49087 | 33901 ft | 534 kts | 28° |
| 2026-05-05 17:12 | 42.80649 | 5.54361 | 33905 ft | 534 kts | 28° |
| 2026-05-05 17:13 | 42.86978 | 5.59652 | 33913 ft | 534 kts | 28° |
| 2026-05-05 17:13 | 42.93313 | 5.64951 | 33913 ft | 534 kts | 28° |
| 2026-05-05 17:14 | 42.99644 | 5.70258 | 33910 ft | 534 kts | 28° |
| 2026-05-05 17:14 | 43.05967 | 5.75574 | 33917 ft | 534 kts | 28° |
| 2026-05-05 17:15 | 43.12281 | 5.80904 | 33952 ft | 534 kts | 29° |
| 2026-05-05 17:15 | 43.18606 | 5.86257 | 33933 ft | 534 kts | 29° |
| 2026-05-05 17:16 | 43.24918 | 5.91604 | 33924 ft | 534 kts | 29° |
| 2026-05-05 17:16 | 43.31244 | 5.96982 | 33941 ft | 533 kts | 28° |
| 2026-05-05 17:17 | 43.37696 | 6.01889 | 33917 ft | 528 kts | 17° |
| 2026-05-05 17:17 | 43.44680 | 6.04490 | 33908 ft | 514 kts | 0° |
| 2026-05-05 17:18 | 43.51763 | 6.05282 | 33922 ft | 510 kts | 356° |
| 2026-05-05 17:18 | 43.58853 | 6.05997 | 33918 ft | 510 kts | 356° |
| 2026-05-05 17:19 | 43.65927 | 6.06710 | 33910 ft | 509 kts | 356° |
| 2026-05-05 17:19 | 43.72994 | 6.07443 | 33921 ft | 511 kts | 360° |
| 2026-05-05 17:20 | 43.79982 | 6.09854 | 33887 ft | 525 kts | 18° |
| 2026-05-05 17:20 | 43.86602 | 6.14283 | 33919 ft | 529 kts | 22° |
| 2026-05-05 17:21 | 43.93203 | 6.18795 | 33919 ft | 529 kts | 22° |
| 2026-05-05 17:22 | 44.03119 | 6.25540 | 33922 ft | 531 kts | 21° |
| 2026-05-05 17:22 | 44.09741 | 6.30074 | 33959 ft | 530 kts | 22° |
| 2026-05-05 17:23 | 44.16335 | 6.34645 | 33952 ft | 529 kts | 22° |
| 2026-05-05 17:23 | 44.22912 | 6.39199 | 33946 ft | 528 kts | 22° |
| 2026-05-05 17:24 | 44.29479 | 6.43743 | 33957 ft | 526 kts | 22° |
| 2026-05-05 17:24 | 44.36038 | 6.48279 | 33901 ft | 524 kts | 22° |
| 2026-05-05 17:25 | 44.42572 | 6.52818 | 33912 ft | 525 kts | 22° |
| 2026-05-05 17:25 | 44.49109 | 6.57367 | 33942 ft | 524 kts | 22° |
| 2026-05-05 17:26 | 44.55623 | 6.61916 | 33930 ft | 523 kts | 22° |
| 2026-05-05 17:26 | 44.62134 | 6.66478 | 33916 ft | 522 kts | 22° |
| 2026-05-05 17:27 | 44.68636 | 6.71028 | 33928 ft | 523 kts | 22° |
| 2026-05-05 17:27 | 44.75164 | 6.75545 | 33918 ft | 520 kts | 18° |
| 2026-05-05 17:28 | 44.82002 | 6.78254 | 33941 ft | 507 kts | 1° |